createdAt,value
2023-03-21T00:00:46.146Z,27.80
2023-03-21T00:03:22.238Z,26.90
2023-03-21T00:05:53.879Z,27.00
2023-03-21T00:08:22.109Z,27.30
2023-03-21T00:10:49.515Z,27.50
2023-03-21T00:13:19.278Z,28.20
2023-03-21T00:16:14.317Z,27.20
2023-03-21T00:18:42.623Z,27.30
2023-03-21T00:21:39.537Z,26.80
2023-03-21T00:24:03.678Z,27.00
2023-03-21T00:26:31.888Z,27.80
2023-03-21T00:28:59.218Z,28.00
2023-03-21T00:31:26.532Z,27.70
2023-03-21T00:33:56.677Z,28.50
2023-03-21T00:36:25.974Z,27.30
2023-03-21T00:38:53.294Z,27.80
2023-03-21T00:41:35.126Z,29.00
2023-03-21T00:44:08.085Z,27.60
2023-03-21T00:47:00.548Z,28.70
2023-03-21T00:49:26.175Z,27.40
2023-03-21T00:51:55.359Z,28.10
2023-03-21T00:54:24.874Z,28.30
2023-03-21T00:56:52.433Z,28.60
2023-03-21T00:59:19.725Z,28.30
2023-03-21T01:01:47.729Z,28.70
2023-03-21T01:04:16.778Z,28.50
2023-03-21T01:06:45.918Z,29.10
2023-03-21T01:09:26.429Z,27.10
2023-03-21T01:11:54.330Z,28.60
2023-03-21T01:14:23.977Z,28.80
2023-03-21T01:16:52.988Z,27.40
2023-03-21T01:19:37.631Z,27.70
2023-03-21T01:22:10.829Z,27.00
2023-03-21T01:24:50.352Z,27.70
2023-03-21T01:27:20.968Z,27.80
2023-03-21T01:29:49.551Z,29.00
2023-03-21T01:32:16.833Z,27.80
2023-03-21T01:34:44.101Z,28.40
2023-03-21T01:37:14.742Z,28.20
2023-03-21T01:39:48.386Z,28.20
2023-03-21T01:42:17.424Z,28.20
2023-03-21T01:44:58.471Z,27.40
2023-03-21T01:47:34.500Z,27.80
2023-03-21T01:50:31.017Z,27.20
2023-03-21T01:53:21.057Z,26.10
2023-03-21T01:55:50.409Z,26.20
2023-03-21T01:58:33.592Z,26.20
2023-03-21T02:01:23.025Z,25.20
2023-03-21T02:03:53.123Z,26.30
2023-03-21T02:06:45.766Z,24.90
2023-03-21T02:09:35.942Z,24.50
2023-03-21T02:12:04.553Z,25.60
2023-03-21T02:14:34.528Z,24.40
2023-03-21T02:17:12.877Z,24.60
2023-03-21T02:20:11.833Z,23.20
2023-03-21T02:23:05.172Z,22.90
2023-03-21T02:25:51.868Z,23.80
2023-03-21T02:28:27.302Z,22.10
2023-03-21T02:31:26.684Z,21.50
2023-03-21T02:34:26.236Z,21.10
2023-03-21T02:37:06.897Z,21.90
2023-03-21T02:39:51.013Z,22.00
2023-03-21T02:42:22.570Z,23.00
2023-03-21T02:45:02.779Z,22.40
2023-03-21T02:47:35.963Z,22.80
2023-03-21T02:50:12.981Z,22.80
2023-03-21T02:52:47.348Z,23.70
2023-03-21T02:55:21.105Z,24.50
2023-03-21T02:57:59.245Z,24.30
2023-03-21T03:00:40.016Z,25.60
2023-03-21T03:03:10.464Z,24.30
2023-03-21T03:05:48.931Z,25.20
2023-03-21T03:08:41.323Z,23.60
2023-03-21T03:11:25.440Z,24.20
2023-03-21T03:14:21.141Z,24.30
2023-03-21T03:17:06.824Z,24.30
2023-03-21T03:19:49.554Z,24.00
2023-03-21T03:22:24.574Z,23.30
2023-03-21T03:25:02.820Z,23.40
2023-03-21T03:27:46.655Z,23.10
2023-03-21T03:30:17.289Z,23.10
2023-03-21T03:32:49.854Z,22.00
2023-03-21T03:35:20.042Z,23.50
2023-03-21T03:37:52.794Z,21.60
2023-03-21T03:40:28.374Z,21.20
2023-03-21T03:43:13.480Z,19.70
2023-03-21T03:45:48.951Z,18.40
2023-03-21T03:48:26.562Z,19.00
2023-03-21T03:51:01.582Z,18.40
2023-03-21T03:53:44.224Z,17.40
2023-03-21T03:56:25.599Z,18.40
2023-03-21T03:58:57.687Z,17.30
2023-03-21T04:01:36.721Z,17.00
2023-03-21T04:04:12.911Z,17.40
2023-03-21T04:06:53.593Z,18.20
2023-03-21T04:09:40.930Z,18.00
2023-03-21T04:12:11.185Z,17.40
2023-03-21T04:14:45.765Z,17.30
2023-03-21T04:17:15.697Z,17.20
2023-03-21T04:19:43.219Z,16.50
2023-03-21T04:22:10.916Z,16.70
2023-03-21T04:24:40.065Z,16.30
2023-03-21T04:27:08.043Z,15.30
2023-03-21T04:32:34.290Z,16.30
2023-03-21T04:35:09.967Z,15.00
2023-03-21T04:37:39.372Z,15.50
2023-03-21T04:40:11.302Z,15.70
2023-03-21T04:42:39.027Z,16.00
2023-03-21T04:45:08.774Z,14.80
2023-03-21T04:47:36.122Z,14.60
2023-03-21T04:50:03.620Z,15.40
2023-03-21T04:52:31.153Z,14.30
2023-03-21T04:55:00.023Z,14.80
2023-03-21T04:57:27.198Z,14.00
2023-03-21T04:59:54.417Z,13.90
2023-03-21T05:02:22.226Z,13.30
2023-03-21T05:04:49.455Z,15.30
2023-03-21T05:07:16.668Z,14.20
2023-03-21T05:09:44.208Z,15.50
2023-03-21T05:12:13.934Z,14.20
2023-03-21T05:14:41.383Z,14.90
2023-03-21T05:17:10.753Z,14.70
2023-03-21T05:19:40.842Z,14.00
2023-03-21T05:22:11.444Z,13.90
2023-03-21T05:24:42.708Z,14.20
2023-03-21T05:27:35.346Z,14.10
2023-03-21T05:30:10.171Z,14.10
2023-03-21T05:32:37.931Z,14.10
2023-03-21T05:35:05.851Z,14.10
2023-03-21T05:37:33.333Z,15.50
2023-03-21T05:40:05.829Z,15.70
2023-03-21T05:42:36.002Z,15.20
2023-03-21T05:45:23.929Z,15.10
2023-03-21T05:48:11.498Z,15.20
2023-03-21T05:50:53.009Z,14.40
2023-03-21T05:53:23.252Z,14.50
2023-03-21T05:55:50.792Z,14.50
2023-03-21T05:58:35.450Z,13.90
2023-03-21T06:01:12.742Z,14.40
2023-03-21T06:03:41.530Z,15.20
2023-03-21T06:06:29.351Z,15.30
2023-03-21T06:08:59.367Z,15.10
2023-03-21T06:11:31.613Z,15.30
2023-03-21T06:14:13.440Z,15.10
2023-03-21T06:16:51.212Z,14.30
2023-03-21T06:19:22.656Z,13.50
2023-03-21T06:22:04.221Z,14.10
2023-03-21T06:24:41.108Z,13.00
2023-03-21T06:27:11.540Z,13.80
2023-03-21T06:29:58.663Z,13.00
2023-03-21T06:32:26.440Z,12.40
2023-03-21T06:34:59.699Z,11.90
2023-03-21T06:37:29.936Z,12.00
2023-03-21T06:39:57.695Z,11.00
2023-03-21T06:42:30.357Z,11.30
2023-03-21T06:45:01.150Z,11.60
2023-03-21T06:47:28.673Z,11.10
2023-03-21T06:49:56.453Z,11.20
2023-03-21T06:52:23.661Z,10.80
2023-03-21T06:54:52.740Z,11.50
2023-03-21T06:57:22.074Z,11.10
2023-03-21T06:59:52.226Z,13.20
2023-03-21T07:02:21.509Z,11.10
2023-03-21T07:04:58.355Z,11.10
2023-03-21T07:07:29.849Z,9.90
2023-03-21T07:10:00.464Z,9.60
2023-03-21T07:12:30.149Z,10.20
2023-03-21T07:15:27.546Z,9.30
2023-03-21T07:17:54.806Z,9.70
2023-03-21T07:20:22.294Z,10.80
2023-03-21T07:22:49.570Z,9.90
2023-03-21T07:25:17.545Z,10.10
2023-03-21T07:27:46.502Z,9.40
2023-03-21T07:30:15.264Z,9.50
2023-03-21T07:32:42.981Z,9.40
2023-03-21T07:35:18.187Z,9.20
2023-03-21T07:37:46.390Z,9.20
2023-03-21T07:40:16.786Z,9.70
2023-03-21T07:42:45.250Z,9.00
2023-03-21T07:45:16.597Z,9.10
2023-03-21T07:47:45.822Z,8.30
2023-03-21T07:50:13.462Z,8.00
2023-03-21T07:52:41.653Z,8.00
2023-03-21T07:55:10.563Z,7.60
2023-03-21T07:57:37.931Z,8.20
2023-03-21T08:00:07.111Z,8.70
2023-03-21T08:02:40.035Z,8.10
2023-03-21T08:05:08.220Z,8.90
2023-03-21T08:07:35.440Z,8.30
2023-03-21T08:10:15.982Z,7.90
2023-03-21T08:12:43.440Z,7.20
2023-03-21T08:15:13.292Z,6.80
2023-03-21T08:17:41.095Z,7.90
2023-03-21T08:20:12.737Z,7.10
2023-03-21T08:22:39.911Z,7.10
2023-03-21T08:25:10.245Z,7.50
2023-03-21T08:27:37.765Z,7.80
2023-03-21T08:30:05.843Z,7.60
2023-03-21T08:32:34.033Z,7.80
2023-03-21T08:35:12.709Z,8.40
2023-03-21T08:37:41.055Z,8.00
2023-03-21T08:40:13.441Z,7.00
2023-03-21T08:42:41.849Z,7.40
2023-03-21T08:45:11.332Z,6.80
2023-03-21T08:47:38.705Z,8.40
2023-03-21T08:50:09.538Z,8.00
2023-03-21T08:52:37.329Z,7.70
2023-03-21T08:55:04.837Z,7.60
2023-03-21T08:57:32.568Z,8.10
2023-03-21T08:59:59.891Z,7.90
2023-03-21T09:02:27.284Z,7.50
2023-03-21T09:04:59.232Z,7.80
2023-03-21T09:07:27.985Z,7.70
2023-03-21T09:10:08.423Z,7.30
2023-03-21T09:12:43.031Z,7.50
2023-03-21T09:15:12.467Z,7.60
2023-03-21T09:17:44.109Z,7.80
2023-03-21T09:20:18.920Z,7.70
2023-03-21T09:22:46.324Z,7.50
2023-03-21T09:25:14.168Z,7.60
2023-03-21T09:27:42.150Z,7.30
2023-03-21T09:30:11.992Z,6.50
2023-03-21T09:32:40.026Z,7.70
2023-03-21T09:35:09.718Z,6.80
2023-03-21T09:37:38.471Z,7.80
2023-03-21T09:40:08.807Z,7.50
2023-03-21T09:42:45.872Z,7.40
2023-03-21T09:45:21.078Z,8.00
2023-03-21T09:47:54.438Z,7.60
2023-03-21T09:50:27.502Z,7.80
2023-03-21T09:52:58.537Z,8.10
2023-03-21T09:55:31.794Z,8.70
2023-03-21T09:58:06.955Z,7.70
2023-03-21T10:00:39.868Z,7.50
2023-03-21T10:03:18.050Z,6.90
2023-03-21T10:05:48.647Z,7.40
2023-03-21T10:08:25.290Z,7.80
2023-03-21T10:10:56.648Z,7.60
2023-03-21T10:13:26.593Z,6.90
2023-03-21T10:16:01.613Z,7.70
2023-03-21T10:18:33.775Z,7.30
2023-03-21T10:21:07.744Z,7.20
2023-03-21T10:23:40.508Z,7.10
2023-03-21T10:26:31.087Z,7.30
2023-03-21T10:29:03.068Z,7.10
2023-03-21T10:31:34.570Z,7.50
2023-03-21T10:34:08.060Z,7.20
2023-03-21T10:36:46.040Z,7.00
2023-03-21T10:39:29.128Z,5.60
2023-03-21T10:41:59.441Z,4.40
2023-03-21T10:44:37.643Z,5.20
2023-03-21T10:47:10.264Z,5.00
2023-03-21T10:50:07.024Z,5.20
2023-03-21T10:52:36.915Z,4.70
2023-03-21T10:55:23.067Z,5.00
2023-03-21T10:57:54.321Z,4.80
2023-03-21T11:00:26.436Z,4.90
2023-03-21T11:03:04.811Z,5.00
2023-03-21T11:05:44.821Z,5.60
2023-03-21T11:08:16.201Z,5.40
2023-03-21T11:10:56.153Z,5.50
2023-03-21T11:13:40.906Z,5.70
2023-03-21T11:16:12.606Z,5.70
2023-03-21T11:18:53.764Z,5.30
2023-03-21T11:21:22.587Z,5.50
2023-03-21T11:23:53.006Z,5.60
2023-03-21T11:26:27.555Z,5.90
2023-03-21T11:28:58.724Z,5.20
2023-03-21T11:31:40.975Z,5.00
2023-03-21T11:34:11.197Z,4.90
2023-03-21T11:36:42.313Z,4.90
2023-03-21T11:39:29.678Z,5.10
2023-03-21T11:44:33.669Z,5.60
2023-03-21T11:47:13.581Z,12.70
2023-03-21T11:49:41.132Z,5.80
2023-03-21T11:52:25.454Z,5.60
2023-03-21T11:55:08.097Z,6.10
2023-03-21T11:57:45.997Z,5.20
2023-03-21T12:00:22.528Z,4.90
2023-03-21T12:03:47.256Z,4.40
2023-03-21T12:06:24.116Z,4.00
2023-03-21T12:09:10.288Z,4.50
2023-03-21T12:11:46.918Z,4.60
2023-03-21T12:14:22.402Z,5.30
2023-03-21T12:17:07.550Z,5.10
2023-03-21T12:20:10.145Z,4.70
2023-03-21T12:22:46.984Z,5.30
2023-03-21T12:25:20.660Z,5.80
2023-03-21T12:27:54.840Z,5.50
2023-03-21T12:30:43.267Z,5.90
2023-03-21T12:33:31.591Z,5.30
2023-03-21T12:36:14.876Z,5.60
2023-03-21T12:38:45.248Z,5.50
2023-03-21T12:41:25.792Z,5.10
2023-03-21T12:43:59.960Z,5.10
2023-03-21T12:46:34.197Z,5.90
2023-03-21T12:49:07.106Z,5.30
2023-03-21T12:51:38.972Z,6.50
2023-03-21T12:54:15.939Z,6.20
2023-03-21T12:56:53.675Z,4.50
2023-03-21T12:59:31.592Z,5.10
2023-03-21T13:02:06.711Z,4.40
2023-03-21T13:04:45.290Z,4.70
2023-03-21T13:07:17.649Z,4.30
2023-03-21T13:09:45.697Z,4.30
2023-03-21T13:12:45.291Z,4.30
2023-03-21T13:15:35.125Z,4.50
2023-03-21T13:18:14.113Z,4.70
2023-03-21T13:20:48.788Z,4.20
2023-03-21T13:23:18.714Z,4.50
2023-03-21T13:25:49.262Z,4.40
2023-03-21T13:28:23.872Z,4.30
2023-03-21T13:30:52.302Z,3.70
2023-03-21T13:33:26.203Z,3.90
2023-03-21T13:36:06.292Z,3.80
2023-03-21T13:38:36.546Z,3.20
2023-03-21T13:41:09.407Z,3.30
2023-03-21T13:43:44.977Z,3.60
2023-03-21T13:46:16.481Z,3.00
2023-03-21T13:49:00.177Z,3.50
2023-03-21T13:51:48.291Z,3.50
2023-03-21T13:54:30.968Z,3.30
2023-03-21T13:57:08.529Z,4.10
2023-03-21T13:59:45.712Z,4.20
2023-03-21T14:02:29.667Z,4.20
2023-03-21T14:05:05.422Z,4.00
2023-03-21T14:07:35.204Z,4.60
2023-03-21T14:10:06.573Z,3.90
2023-03-21T14:12:40.846Z,4.20
2023-03-21T14:15:17.247Z,4.20
2023-03-21T14:17:54.152Z,4.20
2023-03-21T14:20:24.777Z,3.90
2023-03-21T14:22:52.241Z,5.00
2023-03-21T14:25:21.725Z,5.00
2023-03-21T14:27:52.852Z,4.70
2023-03-21T14:30:27.973Z,5.00
2023-03-21T14:32:58.887Z,4.80
2023-03-21T14:35:26.917Z,4.20
2023-03-21T14:37:54.498Z,4.90
2023-03-21T14:40:25.732Z,4.80
2023-03-21T14:42:54.017Z,4.70
2023-03-21T14:45:24.690Z,4.80
2023-03-21T14:48:05.912Z,4.70
2023-03-21T14:50:39.244Z,4.60
2023-03-21T14:53:07.398Z,4.20
2023-03-21T14:55:34.875Z,4.00
2023-03-21T14:58:02.393Z,4.00
2023-03-21T15:00:32.048Z,4.10
2023-03-21T15:03:03.174Z,4.70
2023-03-21T15:05:33.725Z,4.00
2023-03-21T15:08:03.323Z,4.30
2023-03-21T15:10:32.992Z,4.60
2023-03-21T15:13:02.749Z,4.90
2023-03-21T15:15:31.571Z,4.20
2023-03-21T15:18:04.066Z,4.30
2023-03-21T15:20:35.563Z,5.10
2023-03-21T15:23:06.435Z,4.50
2023-03-21T15:25:37.743Z,4.70
2023-03-21T15:28:06.260Z,5.30
2023-03-21T15:30:52.107Z,5.00
2023-03-21T15:33:20.670Z,5.30
2023-03-21T15:35:54.306Z,5.00
2023-03-21T15:38:31.640Z,4.80
2023-03-21T15:41:26.954Z,4.70
2023-03-21T15:44:04.175Z,5.10
2023-03-21T15:46:44.128Z,5.00
2023-03-21T15:49:20.472Z,4.60
2023-03-21T15:51:50.202Z,5.20
2023-03-21T15:54:24.765Z,4.90
2023-03-21T15:56:55.051Z,5.00
2023-03-21T15:59:25.789Z,5.40
2023-03-21T16:01:53.394Z,5.30
2023-03-21T16:04:24.134Z,5.90
2023-03-21T16:07:01.587Z,5.00
2023-03-21T16:09:30.052Z,5.90
2023-03-21T16:11:58.848Z,6.20
2023-03-21T16:14:28.708Z,5.30
2023-03-21T16:16:56.785Z,5.90
2023-03-21T16:19:24.989Z,6.00
2023-03-21T16:21:52.835Z,5.90
2023-03-21T16:24:22.731Z,5.80
2023-03-21T16:26:53.556Z,5.90
2023-03-21T16:29:22.625Z,5.60
2023-03-21T16:31:53.381Z,5.90
2023-03-21T16:34:20.771Z,7.10
2023-03-21T16:36:48.102Z,6.40
2023-03-21T16:39:21.176Z,5.60
2023-03-21T16:41:49.119Z,6.10
2023-03-21T16:44:16.603Z,6.90
2023-03-21T16:46:44.971Z,6.40
2023-03-21T16:49:21.478Z,6.90
2023-03-21T16:51:49.109Z,6.50
2023-03-21T16:54:16.233Z,6.90
2023-03-21T16:56:51.012Z,6.70
2023-03-21T16:59:18.280Z,7.00
2023-03-21T17:01:49.061Z,6.60
2023-03-21T17:04:17.079Z,7.30
2023-03-21T17:06:47.836Z,6.50
2023-03-21T17:09:16.557Z,7.30
2023-03-21T17:11:44.724Z,7.50
2023-03-21T17:14:18.815Z,6.40
2023-03-21T17:16:47.144Z,7.10
2023-03-21T17:19:18.213Z,6.40
2023-03-21T17:21:46.640Z,7.10
2023-03-21T17:24:14.315Z,7.80
2023-03-21T17:26:43.823Z,7.50
2023-03-21T17:29:13.919Z,7.90
2023-03-21T17:31:41.259Z,7.30
2023-03-21T17:34:09.784Z,7.60
2023-03-21T17:36:38.661Z,7.30
2023-03-21T17:39:08.756Z,7.40
2023-03-21T17:41:36.634Z,7.30
2023-03-21T17:44:04.354Z,7.10
2023-03-21T17:46:42.054Z,8.40
2023-03-21T17:49:12.896Z,8.00
2023-03-21T17:51:40.110Z,8.90
2023-03-21T17:54:09.593Z,7.40
2023-03-21T17:56:40.136Z,7.70
2023-03-21T17:59:12.592Z,9.10
2023-03-21T18:01:49.962Z,7.70
2023-03-21T18:04:17.814Z,7.80
2023-03-21T18:06:45.034Z,8.50
2023-03-21T18:09:20.246Z,9.60
2023-03-21T18:11:51.352Z,9.90
2023-03-21T18:14:25.481Z,9.40
2023-03-21T18:16:55.100Z,10.50
2023-03-21T18:19:22.451Z,10.30
2023-03-21T18:21:50.512Z,11.10
2023-03-21T18:24:17.977Z,10.60
2023-03-21T18:26:46.144Z,9.60
2023-03-21T18:32:08.069Z,9.60
2023-03-21T18:34:36.386Z,9.70
2023-03-21T18:37:04.558Z,10.50
2023-03-21T18:39:35.024Z,9.50
2023-03-21T18:42:04.704Z,10.30
2023-03-21T18:44:47.052Z,9.70
2023-03-21T18:47:14.970Z,10.40
2023-03-21T18:50:12.690Z,10.00
2023-03-21T18:52:33.062Z,10.60
2023-03-21T18:55:14.731Z,10.60
2023-03-21T18:58:02.438Z,10.00
2023-03-21T19:00:29.725Z,12.10
2023-03-21T19:03:12.996Z,11.50
2023-03-21T19:05:44.949Z,10.60
2023-03-21T19:08:12.065Z,10.60
2023-03-21T19:10:39.547Z,11.10
2023-03-21T19:13:08.188Z,11.70
2023-03-21T19:15:35.530Z,13.60
2023-03-21T19:23:17.718Z,20.50
2023-03-21T19:25:45.945Z,17.10
2023-03-21T19:28:14.171Z,17.90
2023-03-21T19:30:49.822Z,18.30
2023-03-21T19:33:18.811Z,17.60
2023-03-21T19:35:48.998Z,17.80
2023-03-21T19:38:16.826Z,17.50
2023-03-21T19:41:05.222Z,18.30
2023-03-21T19:43:33.578Z,18.70
2023-03-21T19:46:02.194Z,18.30
2023-03-21T19:48:30.420Z,18.70
2023-03-21T19:51:26.804Z,21.00
2023-03-21T19:53:50.037Z,22.50
2023-03-21T19:56:22.308Z,22.90
2023-03-21T19:58:52.268Z,23.60
2023-03-21T20:01:19.706Z,23.70
2023-03-21T20:03:47.392Z,24.80
2023-03-21T20:06:14.972Z,22.50
2023-03-21T20:11:32.884Z,24.50
2023-03-21T20:14:02.044Z,23.50
2023-03-21T20:16:35.514Z,22.00
2023-03-21T20:19:03.141Z,22.50
2023-03-21T20:21:42.246Z,23.50
2023-03-21T20:24:13.794Z,22.20
2023-03-21T20:26:41.387Z,23.70
2023-03-21T20:29:59.915Z,22.50
2023-03-21T20:31:56.380Z,21.90
2023-03-21T20:34:23.496Z,23.40
2023-03-21T20:36:51.006Z,22.60
2023-03-21T20:39:18.465Z,23.00
2023-03-21T20:41:45.629Z,23.80
2023-03-21T20:44:44.885Z,25.00
2023-03-21T20:47:04.362Z,23.90
2023-03-21T20:49:34.272Z,25.80
2023-03-21T20:54:58.489Z,25.70
2023-03-21T20:57:27.341Z,30.10
2023-03-21T20:59:55.000Z,34.70
2023-03-21T21:02:22.517Z,34.20
2023-03-21T21:05:21.595Z,37.00
2023-03-21T21:07:37.717Z,35.00
2023-03-21T21:10:05.969Z,36.40
2023-03-21T21:12:33.138Z,37.30
2023-03-21T21:15:00.242Z,38.60
2023-03-21T21:18:03.610Z,41.60
2023-03-21T21:20:21.182Z,42.40
2023-03-21T21:23:00.254Z,41.20
2023-03-21T21:25:29.043Z,38.90
2023-03-21T21:27:56.341Z,40.40
2023-03-21T21:30:32.773Z,38.90
2023-03-21T21:33:00.945Z,38.90
2023-03-21T21:35:28.633Z,38.00
2023-03-21T21:37:56.393Z,37.10
2023-03-21T21:40:24.574Z,36.50
2023-03-21T21:42:52.286Z,36.50
2023-03-21T21:45:20.215Z,37.00
2023-03-21T21:47:48.419Z,37.90
2023-03-21T21:50:15.646Z,39.50
2023-03-21T21:52:53.028Z,36.60
2023-03-21T21:55:20.590Z,37.60
2023-03-21T21:57:51.499Z,37.40
2023-03-21T22:00:21.562Z,37.60
2023-03-21T22:02:48.763Z,34.30
2023-03-21T22:05:16.539Z,33.10
2023-03-21T22:07:44.050Z,31.90
2023-03-21T22:10:12.423Z,33.00
2023-03-21T22:12:42.877Z,34.20
2023-03-21T22:15:12.219Z,33.70
2023-03-21T22:17:39.948Z,34.10
2023-03-21T22:20:08.962Z,34.20
2023-03-21T22:22:36.548Z,34.30
2023-03-21T22:25:04.154Z,32.70
2023-03-21T22:27:31.763Z,32.90
2023-03-21T22:30:04.479Z,32.70
2023-03-21T22:32:31.778Z,31.10
2023-03-21T22:35:02.407Z,31.20
2023-03-21T22:37:29.934Z,31.40
2023-03-21T22:40:11.163Z,33.30
2023-03-21T22:42:39.759Z,32.30
2023-03-21T22:45:12.655Z,33.70
2023-03-21T22:47:40.860Z,32.70
2023-03-21T22:50:10.225Z,34.10
2023-03-21T22:52:40.612Z,33.90
2023-03-21T22:55:10.218Z,33.90
2023-03-21T22:57:40.240Z,30.20
2023-03-21T23:00:13.815Z,32.90
2023-03-21T23:02:41.534Z,34.10
2023-03-21T23:05:11.729Z,34.20
2023-03-21T23:07:42.565Z,32.90
2023-03-21T23:10:12.902Z,34.90
2023-03-21T23:12:40.386Z,32.70
2023-03-21T23:15:11.977Z,33.70
2023-03-21T23:17:39.338Z,35.00
2023-03-21T23:20:11.355Z,32.70
2023-03-21T23:22:41.677Z,34.70
2023-03-21T23:25:10.318Z,33.30
2023-03-21T23:27:40.663Z,33.30
2023-03-21T23:30:10.191Z,34.40
2023-03-21T23:32:37.694Z,34.40
2023-03-21T23:35:05.307Z,35.00
2023-03-21T23:37:32.568Z,32.80
2023-03-21T23:40:02.347Z,33.50
2023-03-21T23:42:34.342Z,32.10
2023-03-21T23:45:01.562Z,31.20
2023-03-21T23:47:31.007Z,30.00
2023-03-21T23:49:58.540Z,29.90
2023-03-21T23:52:26.252Z,30.60
2023-03-21T23:54:53.542Z,31.00
2023-03-21T23:57:22.345Z,28.00
2023-03-21T23:59:50.455Z,27.40
